Airfield :
LOGIN :

Register | Disclaimer

   EN    FR    IT 

 










Legend :    VFR   Marginal VFR   IFR   Intensive IFR   Very Intensive IFR
Visi :
Ceiling :
>= 8 km
>= 3000ft
5 to 8 km
1000 to 3000 ft
1500m to 5 km
500 to 1000 ft
800 to 1500m
200 to 500 ft
< 800m
< 200 ft
Symbols :   Thunderstorms  Fog  Heavy snow  Heavy precipitations  Wind > 20 kt
SIGMETs :     Misc.  Thunderstorms  Icing  Turbulence  Mountain Waves  Volcanic Ashes






- Airport Elevation : 1017 ft


LFSL - Brive Souillac

CURRENT METAR :
  • 291100Z AUTO 27004KT 230V300 9999 BKN009 OVC014 09/08 Q1021 TEMPO 4000 -RADZ BKN003

EXPIRED METARs :
  • 291030Z AUTO 28004KT 210V320 9999 BKN007 BKN030 OVC047 09/08 Q1021 TEMPO 4000 -RADZ BKN003
  • 291000Z AUTO 29006KT 240V310 9999 OVC006 08/07 Q1021 TEMPO 4000 -RADZ BKN003
  • 290930Z AUTO 28005KT 230V310 9999 BKN004 OVC008 08/07 Q1021 TEMPO 4000 -RADZ
  • 290900Z AUTO 26004KT 220V310 9999 BKN003 OVC007 08/07 Q1020 TEMPO 4000 -RADZ
  • 290830Z AUTO 29004KT 240V310 9000 OVC003 07/07 Q1020 TEMPO 4000 RADZ

TAF TAF LFSL
Valid from the 29 at 09:00 until the 29 at 18:00 UTC


290800Z 2909/2918 25006KT 9999 BKN007
TEMPO 2909/2912 4000 -RADZ BKN003
BECMG 2914/2916 VRB03KT SCT013 BKN020



MET'MAP, your aeronautical weather chart ! - Copyright ORBIFLY December 2007 - Disclaimer

ORBIFLY MET'MAP TEAM :

Programming & Development : Alexandra Zaïnal
Concept & original design : Baudouin d'Aumeries
Assistance for programming : Marc-Olivier Méhu
Technical & hardware support : Manuel Goepfert

Contact : metmap@orbifly.com




SOURCES & CREDITS :

   NOAA